Terminal Aerodrome Forecast
Issued by NWS

Home | Current Version | Previous Version | Text Only | Print | Product List | Glossary On
Versions: 1 2 3 4 5 6 7 8 9 10 11 12 13 14 15 16 17
235
FTUS43 KILX 271729
TAFDEC
TAF
KDEC 271729Z 2718/2818 11007KT 6SM -SHRA OVC040
     FM272100 02007KT P6SM VCSH OVC025
     FM280400 01008KT P6SM BKN015
     FM280600 01009KT P6SM OVC008
     FM281300 01008KT P6SM BKN012=

USA.gov is the U.S. government's official web portal to all federal, state and local government web resources and services.